Time;durP1;ratioP1;P1;durP2;ratioP2;P2;SDS_P1;SDS_P2;PMS_P1;PMS_P2;Temp;Humidity;BMP_temperature;BMP_pressure;BME280_temperature;BME280_humidity;BME280_pressure;Samples;Min_cycle;Max_cycle;Signal;HPM_P1;HPM_P2
2022/05/26 00:00:43;;;;;;;3.37;2.92;;;;;;;17.94;72.73;98711.16;1757191;79;21022;-76
2022/05/26 00:03:10;;;;;;;3.10;2.90;;;;;;;17.91;72.48;98716.22;1748312;81;20928;-72
2022/05/26 00:05:37;;;;;;;3.65;3.10;;;;;;;17.86;71.97;98702.92;1751740;79;20979;-72
2022/05/26 00:08:06;;;;;;;3.00;2.80;;;;;;;17.83;71.56;98714.70;1745406;81;21568;-72
2022/05/26 00:10:35;;;;;;;2.40;2.20;;;;;;;17.80;71.26;98711.13;1750258;81;20955;-72
2022/05/26 00:13:02;;;;;;;1.95;1.85;;;;;;;17.72;70.78;98720.90;1749943;81;20935;-72
2022/05/26 00:15:30;;;;;;;2.10;2.00;;;;;;;17.66;70.49;98717.27;1746453;79;20943;-73
2022/05/26 00:17:56;;;;;;;2.02;1.80;;;;;;;17.62;70.17;98724.70;1749692;79;20887;-73
2022/05/26 00:20:22;;;;;;;2.15;1.87;;;;;;;17.58;69.80;98733.75;1746833;79;21148;-72
2022/05/26 00:22:49;;;;;;;1.80;1.70;;;;;;;17.53;69.72;98735.50;1743512;81;20868;-72
2022/05/26 00:25:16;;;;;;;1.90;1.80;;;;;;;17.51;69.70;98735.71;1746443;81;20928;-72
2022/05/26 00:27:43;;;;;;;1.70;1.60;;;;;;;17.48;69.65;98738.03;1749858;81;21019;-72
2022/05/26 00:30:11;;;;;;;1.87;1.67;;;;;;;17.48;69.51;98744.76;1764494;81;20971;-72
2022/05/26 00:32:38;;;;;;;1.82;1.72;;;;;;;17.47;69.39;98743.14;1767293;81;21246;-72
2022/05/26 00:35:06;;;;;;;1.70;1.60;;;;;;;17.47;69.36;98750.66;1753436;81;21501;-73
2022/05/26 00:37:34;;;;;;;1.35;1.25;;;;;;;17.46;69.27;98742.83;1749890;81;21072;-72
2022/05/26 00:40:03;;;;;;;2.33;2.10;;;;;;;17.44;70.99;98749.77;1750512;81;20979;-72
2022/05/26 00:42:29;;;;;;;1.50;1.40;;;;;;;17.39;69.56;98753.67;1749321;81;21473;-72
2022/05/26 00:44:56;;;;;;;1.90;1.27;;;;;;;17.36;69.12;98762.75;1751198;81;21174;-73
2022/05/26 00:47:25;;;;;;;1.80;1.70;;;;;;;17.30;68.93;98765.83;1751546;81;21006;-73
2022/05/26 00:50:16;;;;;;;1.50;1.40;;;;;;;17.28;68.87;98763.91;1756252;81;20940;-73
2022/05/26 00:53:02;;;;;;;1.50;1.40;;;;;;;17.25;69.03;98766.53;1754535;81;20923;-72
2022/05/26 00:55:32;;;;;;;1.20;1.20;;;;;;;17.22;69.61;98762.95;1743910;81;20852;-73
2022/05/26 00:58:03;;;;;;;2.05;1.27;;;;;;;17.20;69.66;98765.58;1750193;80;22259;-74
2022/05/26 01:00:34;;;;;;;1.45;1.35;;;;;;;17.16;69.63;98770.58;1757491;79;21564;-72
2022/05/26 01:03:28;;;;;;;1.32;1.22;;;;;;;17.12;70.06;98768.06;1741411;81;21490;-72
2022/05/26 01:06:03;;;;;;;1.47;1.20;;;;;;;17.07;70.16;98771.14;1761935;81;20932;-73
2022/05/26 01:08:54;;;;;;;2.25;1.40;;;;;;;17.01;70.51;98786.30;1755633;79;21398;-73
2022/05/26 01:11:27;;;;;;;1.20;1.10;;;;;;;16.95;70.63;98791.23;1746594;81;21882;-72
2022/05/26 01:13:58;;;;;;;1.00;1.00;;;;;;;16.91;71.06;98785.21;1749042;81;21261;-73
2022/05/26 01:17:15;;;;;;;1.02;1.02;;;;;;;16.87;71.26;98783.48;1757807;81;20970;-74
2022/05/26 01:20:08;;;;;;;1.15;1.10;;;;;;;16.81;71.18;98779.56;1759665;79;20876;-75
2022/05/26 01:23:00;;;;;;;0.98;0.98;;;;;;;16.72;71.39;98778.22;1752043;81;21508;-75
2022/05/26 01:26:16;;;;;;;1.87;1.20;;;;;;;16.59;71.58;98788.09;1771903;81;21085;-71
2022/05/26 01:29:31;;;;;;;0.80;0.80;;;;;;;16.53;71.78;98794.88;1746256;81;21042;-71
2022/05/26 01:32:05;;;;;;;1.05;0.98;;;;;;;16.45;71.90;98800.53;1745091;81;20927;-73
2022/05/26 01:34:56;;;;;;;0.90;0.90;;;;;;;16.37;72.07;98800.83;1746043;81;21061;-73
2022/05/26 01:37:53;;;;;;;0.98;0.98;;;;;;;16.32;72.18;98804.70;1750546;79;20979;-75
2022/05/26 01:40:43;;;;;;;0.95;0.85;;;;;;;16.26;71.96;98816.33;1749565;81;21102;-74
2022/05/26 01:43:25;;;;;;;1.00;1.00;;;;;;;16.20;71.96;98821.23;1747757;81;21482;-71
2022/05/26 01:46:12;;;;;;;1.05;1.05;;;;;;;16.16;72.12;98814.67;1746713;81;20864;-74
2022/05/26 01:48:58;;;;;;;0.90;0.90;;;;;;;16.13;72.25;98816.45;1759109;79;20864;-74
2022/05/26 01:51:30;;;;;;;1.00;0.90;;;;;;;16.11;72.12;98824.73;1739380;80;21006;-72
2022/05/26 01:54:12;;;;;;;1.10;1.00;;;;;;;16.06;72.15;98828.06;1755956;81;21206;-73
2022/05/26 01:57:06;;;;;;;1.00;0.93;;;;;;;16.03;72.20;98839.23;1771853;81;20880;-75
2022/05/26 01:59:39;;;;;;;1.60;1.30;;;;;;;15.99;71.96;98842.58;1763325;79;21010;-72
2022/05/26 02:02:14;;;;;;;0.90;0.90;;;;;;;15.93;71.73;98840.25;1749945;81;20998;-71
2022/05/26 02:04:44;;;;;;;0.90;0.82;;;;;;;15.87;71.51;98847.86;1751110;79;20930;-71
2022/05/26 02:07:16;;;;;;;0.80;0.80;;;;;;;15.86;71.45;98855.59;1745567;81;21115;-71
2022/05/26 02:09:42;;;;;;;1.07;1.07;;;;;;;15.81;71.21;98843.36;1759917;79;21029;-73
2022/05/26 02:12:16;;;;;;;1.20;0.98;;;;;;;15.77;71.13;98850.73;1746373;81;20983;-71
2022/05/26 02:14:54;;;;;;;1.15;1.00;;;;;;;15.71;70.99;98852.42;1749088;81;20927;-72
2022/05/26 02:17:33;;;;;;;0.93;0.93;;;;;;;15.67;70.97;98843.70;1760083;79;20971;-72
2022/05/26 02:20:16;;;;;;;0.98;0.90;;;;;;;15.65;70.96;98837.70;1756756;79;21211;-72
2022/05/26 02:22:50;;;;;;;1.27;0.90;;;;;;;15.62;70.91;98834.11;1753532;81;20907;-72
2022/05/26 02:25:22;;;;;;;0.95;0.95;;;;;;;15.60;70.96;98837.02;1751661;81;20975;-72
2022/05/26 02:27:54;;;;;;;1.37;0.80;;;;;;;15.56;70.86;98831.81;1750786;79;20900;-72
2022/05/26 02:30:23;;;;;;;1.00;0.88;;;;;;;15.53;70.65;98843.47;1752024;79;20907;-72
2022/05/26 02:32:51;;;;;;;2.98;1.40;;;;;;;15.50;70.57;98836.69;1752499;81;21798;-71
2022/05/26 02:35:33;;;;;;;1.80;0.93;;;;;;;15.48;70.63;98849.49;1748562;81;21015;-72
2022/05/26 02:38:11;;;;;;;1.27;1.10;;;;;;;15.46;70.73;98859.59;1743826;81;20939;-72
2022/05/26 02:40:37;;;;;;;2.05;1.72;;;;;;;15.42;70.60;98847.64;1748988;79;20939;-72
2022/05/26 02:43:10;;;;;;;1.25;1.20;;;;;;;15.38;70.75;98859.84;1743774;81;20979;-73
2022/05/26 02:46:23;;;;;;;1.22;1.12;;;;;;;15.34;70.88;98866.66;1751267;79;21233;-72
2022/05/26 02:49:10;;;;;;;1.22;1.12;;;;;;;15.31;70.79;98861.20;1753473;79;20915;-72
2022/05/26 02:52:19;;;;;;;2.05;1.30;;;;;;;15.26;70.76;98861.03;1753978;81;20955;-72
2022/05/26 02:55:10;;;;;;;1.50;1.40;;;;;;;15.20;70.88;98859.74;1762769;81;20990;-72
2022/05/26 02:57:43;;;;;;;3.00;1.60;;;;;;;15.17;70.90;98870.34;1766967;80;20951;-72
2022/05/26 03:00:19;;;;;;;1.80;1.70;;;;;;;15.12;71.09;98868.03;1786014;79;21130;-72
2022/05/26 03:03:40;;;;;;;1.72;1.50;;;;;;;15.10;71.17;98872.75;1767040;80;20943;-72
2022/05/26 03:06:21;;;;;;;1.37;1.27;;;;;;;15.10;71.29;98872.75;1768513;80;20962;-72
2022/05/26 03:08:48;;;;;;;1.17;1.15;;;;;;;15.09;71.41;98877.83;1764167;80;20891;-73
2022/05/26 03:11:20;;;;;;;1.90;1.80;;;;;;;15.08;71.37;98882.87;1766192;78;21516;-74
2022/05/26 03:13:46;;;;;;;1.82;1.72;;;;;;;15.09;71.46;98887.20;1763202;80;21146;-72
2022/05/26 03:16:13;;;;;;;1.32;1.22;;;;;;;15.11;71.50;98895.33;1763135;78;21558;-74
2022/05/26 03:18:40;;;;;;;2.75;1.70;;;;;;;15.14;71.48;98898.09;1775799;78;21405;-73
2022/05/26 03:21:07;;;;;;;1.90;1.80;;;;;;;15.15;71.19;98896.53;1764838;79;21038;-71
2022/05/26 03:23:33;;;;;;;1.90;1.80;;;;;;;15.19;71.17;98904.98;1770090;78;21001;-75
2022/05/26 03:26:01;;;;;;;1.75;1.65;;;;;;;15.23;71.12;98904.33;1766353;80;21380;-73
2022/05/26 03:28:28;;;;;;;2.00;1.70;;;;;;;15.28;71.10;98903.16;1761836;80;21461;-75
2022/05/26 03:30:56;;;;;;;1.75;1.60;;;;;;;15.33;71.09;98910.05;1779718;78;21505;-73
2022/05/26 03:33:23;;;;;;;1.98;1.87;;;;;;;15.39;70.92;98898.98;1769293;80;20899;-73
2022/05/26 03:41:24;;;;;;;5.20;4.70;;;;;;;15.55;70.25;98909.23;1772309;80;21010;-74
2022/05/26 03:43:57;;;;;;;3.90;3.58;;;;;;;15.62;69.96;98911.86;1761900;80;20914;-73
2022/05/26 03:46:25;;;;;;;3.62;3.37;;;;;;;15.69;69.85;98908.12;1777962;80;21009;-74
2022/05/26 03:48:51;;;;;;;3.08;2.87;;;;;;;15.89;69.61;98915.51;1764811;79;21041;-73
2022/05/26 03:51:18;;;;;;;2.65;2.45;;;;;;;16.04;69.15;98911.98;1765370;80;21245;-74
2022/05/26 03:53:44;;;;;;;2.60;2.40;;;;;;;16.24;68.73;98911.00;1764850;80;21472;-72
2022/05/26 03:56:11;;;;;;;2.45;2.25;;;;;;;16.46;68.55;98916.25;1764214;80;20978;-74
2022/05/26 03:58:38;;;;;;;2.60;2.40;;;;;;;16.66;67.69;98915.55;1754513;79;21521;-72
2022/05/26 04:01:06;;;;;;;3.62;2.58;;;;;;;16.85;66.88;98906.47;1770997;81;20963;-72
2022/05/26 04:03:33;;;;;;;2.52;2.33;;;;;;;17.02;66.54;98903.50;1757095;81;21892;-76
2022/05/26 04:05:59;;;;;;;2.67;2.47;;;;;;;17.20;65.54;98916.09;1749217;79;20950;-76
2022/05/26 04:08:27;;;;;;;3.15;2.83;;;;;;;17.35;65.02;98912.47;1750473;81;20959;-73
2022/05/26 04:10:53;;;;;;;4.08;2.50;;;;;;;17.53;64.51;98912.45;1758081;79;20915;-73
2022/05/26 04:13:22;;;;;;;3.02;2.72;;;;;;;17.73;63.97;98917.54;1748997;81;20887;-73
2022/05/26 04:15:48;;;;;;;2.60;2.42;;;;;;;17.99;63.17;98917.69;1749665;79;21769;-73
2022/05/26 04:18:15;;;;;;;2.42;2.22;;;;;;;18.32;62.38;98916.09;1753765;81;20932;-73
2022/05/26 04:20:42;;;;;;;2.50;2.30;;;;;;;18.66;61.30;98925.78;1753332;79;20892;-72
2022/05/26 04:23:10;;;;;;;3.87;2.02;;;;;;;18.97;59.96;98915.43;1750217;81;21006;-74
2022/05/26 04:25:37;;;;;;;2.15;2.00;;;;;;;19.36;59.28;98919.19;1746453;81;20987;-73
2022/05/26 04:28:04;;;;;;;2.62;2.42;;;;;;;19.88;58.34;98915.87;1747534;81;21268;-73
2022/05/26 04:30:30;;;;;;;2.60;2.40;;;;;;;20.31;56.68;98916.06;1755245;79;20907;-72
2022/05/26 04:32:57;;;;;;;2.17;2.08;;;;;;;20.61;54.83;98914.90;1760212;81;21444;-74
2022/05/26 04:35:24;;;;;;;3.15;2.95;;;;;;;20.69;53.91;98919.36;1750529;81;21582;-73
2022/05/26 04:37:50;;;;;;;3.12;2.83;;;;;;;20.73;53.30;98925.89;1743698;81;20964;-73
2022/05/26 04:40:17;;;;;;;4.17;3.80;;;;;;;20.86;52.54;98927.41;1745829;81;21115;-72
2022/05/26 04:42:43;;;;;;;2.80;2.33;;;;;;;20.98;52.06;98936.77;1751303;81;20935;-72
2022/05/26 04:45:12;;;;;;;2.60;2.40;;;;;;;21.18;50.97;98934.36;1751928;79;20900;-71
2022/05/26 04:47:40;;;;;;;3.25;2.37;;;;;;;21.42;50.57;98938.45;1749622;81;20954;-72
2022/05/26 04:50:09;;;;;;;2.12;1.90;;;;;;;21.79;50.40;98933.99;1751396;81;21476;-74
2022/05/26 04:52:37;;;;;;;2.20;2.10;;;;;;;22.37;49.13;98931.02;1753992;81;21134;-73
2022/05/26 04:55:05;;;;;;;2.50;2.30;;;;;;;22.82;47.43;98925.09;1750443;81;20935;-71
2022/05/26 04:57:33;;;;;;;3.80;2.15;;;;;;;23.06;46.44;98921.71;1750002;79;20982;-73
2022/05/26 05:00:00;;;;;;;2.72;2.52;;;;;;;23.16;45.67;98931.25;1782213;80;20923;-74
2022/05/26 05:02:26;;;;;;;2.30;2.20;;;;;;;23.22;45.07;98928.84;1777037;80;20974;-76
2022/05/26 05:04:53;;;;;;;4.28;2.87;;;;;;;23.28;44.73;98926.97;1766342;80;21484;-77
2022/05/26 05:07:22;;;;;;;3.62;2.95;;;;;;;23.29;44.26;98928.05;1764918;80;20872;-71
2022/05/26 05:09:48;;;;;;;3.15;2.95;;;;;;;23.28;44.04;98918.83;1764692;78;20959;-73
2022/05/26 05:12:20;;;;;;;3.17;2.98;;;;;;;23.33;43.98;98922.35;1778154;78;21005;-73
2022/05/26 05:14:48;;;;;;;4.37;3.37;;;;;;;23.61;44.09;98923.02;1768331;80;20991;-72
2022/05/26 05:17:16;;;;;;;4.65;3.30;;;;;;;23.91;43.42;98914.92;1763844;78;21928;-74
2022/05/26 05:19:43;;;;;;;3.80;3.50;;;;;;;23.93;42.57;98920.36;1763072;78;20883;-74
2022/05/26 05:22:28;;;;;;;5.28;4.30;;;;;;;23.72;42.68;98921.97;1767091;80;21046;-74
2022/05/26 05:25:03;;;;;;;6.05;3.80;;;;;;;23.43;42.94;98919.44;1775544;80;20910;-72
2022/05/26 05:27:43;;;;;;;;;;;;;;;22.99;43.72;98927.10;1762511;80;20851;-73
2022/05/26 05:30:17;;;;;;;4.78;4.37;;;;;;;22.67;44.49;98921.76;1775380;80;21449;-72
2022/05/26 05:33:01;;;;;;;6.10;5.62;;;;;;;22.26;45.02;98926.59;1760815;80;20978;-72
2022/05/26 05:35:51;;;;;;;5.92;5.37;;;;;;;21.82;45.87;98932.66;1779170;80;20938;-72
2022/05/26 05:38:17;;;;;;;9.20;5.55;;;;;;;21.42;46.93;98939.80;1763495;80;21508;-73
2022/05/26 05:40:44;;;;;;;6.15;5.65;;;;;;;21.18;47.87;98935.70;1760639;80;20985;-73
2022/05/26 05:43:11;;;;;;;5.80;5.40;;;;;;;20.96;48.54;98926.75;1747440;81;21136;-72
2022/05/26 05:45:39;;;;;;;7.33;6.72;;;;;;;20.77;49.02;98940.55;1768605;80;20935;-75
2022/05/26 05:48:07;;;;;;;7.03;6.53;;;;;;;20.65;49.41;98937.67;1764894;78;20934;-74
2022/05/26 05:50:34;;;;;;;7.22;6.62;;;;;;;20.55;49.68;98945.08;1767186;80;20918;-76
2022/05/26 05:53:00;;;;;;;8.80;6.60;;;;;;;20.41;50.16;98949.20;1772598;78;20947;-72
2022/05/26 05:55:28;;;;;;;8.43;7.60;;;;;;;20.41;50.42;98946.50;1776920;78;21226;-73
2022/05/26 05:57:55;;;;;;;8.05;7.28;;;;;;;20.35;50.55;98951.52;1753788;80;21036;-75
2022/05/26 06:00:21;;;;;;;8.28;7.62;;;;;;;20.31;50.73;98940.91;1774838;79;20919;-74
2022/05/26 06:02:48;;;;;;;8.10;7.40;;;;;;;20.38;50.81;98949.69;1757046;80;20931;-75
2022/05/26 06:05:14;;;;;;;8.28;7.30;;;;;;;20.86;50.73;98944.45;1763444;79;20966;-76
2022/05/26 06:07:41;;;;;;;8.58;7.75;;;;;;;21.03;50.70;98938.19;1763201;79;21559;-74
2022/05/26 06:10:10;;;;;;;9.80;8.90;;;;;;;21.21;49.68;98938.73;1762673;79;21010;-74
2022/05/26 06:12:37;;;;;;;9.33;8.45;;;;;;;21.16;49.24;98944.61;1758431;80;21568;-71
2022/05/26 06:15:05;;;;;;;9.13;7.60;;;;;;;21.06;49.22;98949.37;1754080;80;21539;-70
2022/05/26 06:17:31;;;;;;;7.50;6.70;;;;;;;20.90;49.38;98956.42;1754882;80;21087;-73
2022/05/26 06:19:59;;;;;;;9.63;6.87;;;;;;;20.75;49.66;98957.53;1769645;78;21202;-70
2022/05/26 06:22:25;;;;;;;7.65;6.90;;;;;;;20.65;49.63;98960.64;1761098;80;20927;-71
2022/05/26 06:24:52;;;;;;;7.83;6.50;;;;;;;20.49;49.68;98966.31;1764168;80;21615;-72
2022/05/26 06:30:13;;;;;;;11.00;6.72;;;;;;;20.20;50.25;98951.25;1753982;80;21025;-73
2022/05/26 06:38:12;;;;;;;7.62;6.92;;;;;;;20.30;50.18;98963.59;1756073;80;21073;-71
2022/05/26 06:40:38;;;;;;;7.67;6.87;;;;;;;20.51;49.95;98963.39;1753689;80;20927;-72
2022/05/26 06:43:05;;;;;;;6.97;6.45;;;;;;;21.01;49.37;98965.50;1753530;80;20903;-73
2022/05/26 06:45:32;;;;;;;8.45;7.35;;;;;;;21.41;48.99;98955.73;1754152;80;21104;-72
2022/05/26 06:47:58;;;;;;;7.17;6.42;;;;;;;21.80;48.25;98960.50;1768485;79;20999;-74
2022/05/26 06:50:25;;;;;;;11.48;7.50;;;;;;;22.10;47.70;98961.67;1766094;80;21070;-73
2022/05/26 06:52:51;;;;;;;7.67;7.08;;;;;;;22.48;46.58;98951.67;1753646;80;20983;-75
2022/05/26 06:55:20;;;;;;;8.25;7.55;;;;;;;22.86;45.38;98949.27;1753631;80;20974;-76
2022/05/26 06:57:46;;;;;;;8.00;7.30;;;;;;;23.15;44.73;98959.45;1762098;80;21546;-75
2022/05/26 07:00:15;;;;;;;8.03;7.28;;;;;;;23.47;43.32;98955.81;1762082;80;21041;-73
2022/05/26 07:02:43;;;;;;;7.53;6.92;;;;;;;23.88;42.79;98958.95;1776108;78;20938;-74
2022/05/26 07:05:11;;;;;;;7.35;6.83;;;;;;;23.89;42.38;98959.20;1773736;80;20951;-65
2022/05/26 07:07:40;;;;;;;7.15;6.55;;;;;;;23.96;42.19;98959.21;1768789;80;21077;-72
2022/05/26 07:10:12;;;;;;;9.20;7.80;;;;;;;24.22;41.86;98965.52;1784783;80;21919;-73
2022/05/26 07:12:38;;;;;;;7.37;6.70;;;;;;;24.01;41.60;98958.97;1789656;79;20991;-73
2022/05/26 07:15:08;;;;;;;7.40;6.85;;;;;;;23.81;41.45;98967.33;1789693;80;21570;-75
2022/05/26 07:17:36;;;;;;;36.63;9.10;;;;;;;23.87;41.35;98966.81;1787443;80;20946;-73
2022/05/26 07:20:06;;;;;;;19.70;7.90;;;;;;;24.23;41.64;98967.16;1763040;79;20974;-73
2022/05/26 07:22:34;;;;;;;34.03;8.23;;;;;;;24.20;41.87;98964.98;1759954;80;21875;-74
2022/05/26 07:25:00;;;;;;;12.80;7.45;;;;;;;25.41;40.03;98958.02;1759664;80;20914;-74
2022/05/26 07:27:27;;;;;;;9.45;6.55;;;;;;;25.79;39.36;98956.48;1770696;80;20934;-74
2022/05/26 07:29:56;;;;;;;6.78;5.42;;;;;;;26.41;38.14;98948.97;1771864;79;20939;-72
2022/05/26 07:32:23;;;;;;;6.17;5.70;;;;;;;26.54;37.47;98953.77;1775166;80;21541;-69
2022/05/26 07:34:50;;;;;;;5.97;5.53;;;;;;;26.46;36.95;98953.05;1768711;79;21134;-69
2022/05/26 07:42:48;;;;;;;;;;;;;;;26.92;36.15;98950.17;1785405;80;21015;-74
2022/05/26 07:45:15;;;;;;;4.40;4.00;;;;;;;27.11;34.89;98938.50;1789870;80;20162;-72
2022/05/26 07:47:43;;;;;;;6.70;4.33;;;;;;;27.40;34.56;98937.91;1766887;79;20879;-73
2022/05/26 07:50:12;;;;;;;4.20;3.90;;;;;;;28.00;33.79;98935.67;1759799;80;21417;-73
2022/05/26 07:52:38;;;;;;;3.83;3.52;;;;;;;28.97;32.71;98935.71;1759716;80;20978;-74
2022/05/26 07:55:06;;;;;;;4.20;3.80;;;;;;;29.71;31.04;98933.67;1759732;80;21002;-75
2022/05/26 07:57:34;;;;;;;3.65;3.30;;;;;;;30.49;30.19;98929.92;1759708;80;21027;-73
2022/05/26 08:00:00;;;;;;;3.80;3.50;;;;;;;31.29;29.14;98930.23;1759615;80;21549;-75
2022/05/26 08:02:27;;;;;;;4.03;2.92;;;;;;;32.04;28.01;98918.13;1759669;80;20887;-72
2022/05/26 08:04:55;;;;;;;4.42;3.33;;;;;;;32.58;26.53;98925.70;1759680;80;21452;-72
2022/05/26 08:07:21;;;;;;;8.10;3.37;;;;;;;33.11;26.17;98923.05;1759600;80;20934;-74
2022/05/26 08:09:47;;;;;;;3.27;2.80;;;;;;;32.56;26.17;98936.23;1759680;80;20974;-74
2022/05/26 08:12:15;;;;;;;3.35;2.60;;;;;;;33.25;25.42;98934.63;1759628;80;20985;-72
2022/05/26 08:14:43;;;;;;;4.60;2.62;;;;;;;33.10;25.36;98932.44;1759727;80;20939;-74
2022/05/26 08:17:11;;;;;;;2.87;2.50;;;;;;;33.66;24.71;98943.61;1759654;80;21658;-75
2022/05/26 08:19:38;;;;;;;3.30;2.27;;;;;;;33.11;24.70;98934.87;1759419;80;21449;-73
2022/05/26 08:22:05;;;;;;;4.58;2.80;;;;;;;32.51;25.13;98936.38;1759555;80;21022;-73
2022/05/26 08:24:31;;;;;;;2.17;2.08;;;;;;;32.55;25.21;98942.05;1759724;80;21139;-72
2022/05/26 08:26:58;;;;;;;2.60;2.40;;;;;;;31.55;26.17;98933.89;1759546;80;21504;-73
2022/05/26 08:29:25;;;;;;;3.87;2.00;;;;;;;32.59;25.57;98932.02;1759641;80;21020;-73
2022/05/26 08:31:52;;;;;;;2.10;1.80;;;;;;;33.15;24.81;98928.11;1759571;80;20899;-72
2022/05/26 08:34:18;;;;;;;4.67;2.30;;;;;;;34.01;23.21;98922.88;1779927;80;20935;-72
2022/05/26 08:36:46;;;;;;;2.40;1.85;;;;;;;34.88;22.22;98927.84;1759437;80;21308;-73
2022/05/26 08:39:13;;;;;;;2.75;1.80;;;;;;;34.64;22.02;98932.17;1759371;80;21508;-74
2022/05/26 08:41:46;;;;;;;4.67;2.37;;;;;;;33.99;23.03;98925.99;1759514;80;20930;-73
2022/05/26 08:44:30;;;;;;;2.20;2.00;;;;;;;34.86;22.61;98935.67;1780230;80;20899;-73
2022/05/26 08:47:14;;;;;;;2.72;1.95;;;;;;;35.24;21.92;98934.25;1788868;79;20915;-73
2022/05/26 08:49:52;;;;;;;;;;;;;;;35.53;21.42;98921.32;1789875;79;21108;-75
2022/05/26 08:52:58;;;;;;;3.43;1.50;;;;;;;35.49;20.95;98930.06;1789829;79;20114;-74
2022/05/26 08:55:42;;;;;;;1.55;1.30;;;;;;;36.12;20.49;98912.69;1789743;80;21496;-73
2022/05/26 08:58:17;;;;;;;3.77;1.10;;;;;;;37.17;19.13;98917.33;1759630;80;21434;-73
2022/05/26 09:00:46;;;;;;;2.27;1.30;;;;;;;36.32;19.26;98906.74;1759727;80;21448;-72
2022/05/26 09:03:31;;;;;;;2.05;1.40;;;;;;;36.95;18.35;98917.38;1759610;80;21186;-73
2022/05/26 09:06:11;;;;;;;4.55;2.45;;;;;;;36.92;18.63;98922.23;1759698;80;21532;-71
2022/05/26 09:14:33;;;;;;;1.47;1.37;;;;;;;37.57;18.78;98927.04;1789605;80;20931;-74
2022/05/26 09:17:03;;;;;;;7.72;1.37;;;;;;;38.47;17.62;98916.13;1790047;80;20910;-75
2022/05/26 09:19:48;;;;;;;6.08;1.22;;;;;;;37.57;17.86;98919.33;1779958;80;20910;-75
2022/05/26 09:22:40;;;;;;;2.02;1.10;;;;;;;37.92;17.37;98923.48;1759389;80;21010;-73
2022/05/26 09:25:21;;;;;;;1.98;1.30;;;;;;;37.91;17.55;98923.28;1759575;80;20935;-74
2022/05/26 09:27:52;;;;;;;4.10;1.10;;;;;;;38.97;16.80;98918.44;1772343;80;20919;-73
2022/05/26 09:30:25;;;;;;;2.67;1.00;;;;;;;39.73;15.94;98911.16;1789610;80;21138;-72
2022/05/26 09:32:52;;;;;;;2.05;1.00;;;;;;;40.21;15.17;98917.76;1789620;79;20824;-75
2022/05/26 09:35:26;;;;;;;1.00;1.00;;;;;;;40.46;15.06;98910.50;1789486;79;20919;-73
2022/05/26 09:37:58;;;;;;;2.37;0.90;;;;;;;41.06;14.70;98920.09;1789757;80;21096;-71
2022/05/26 09:40:28;;;;;;;0.93;0.80;;;;;;;40.81;14.65;98908.67;1789530;79;21353;-74
2022/05/26 09:43:06;;;;;;;2.87;1.10;;;;;;;41.48;14.12;98919.65;1789536;79;21127;-72
2022/05/26 09:45:44;;;;;;;1.65;1.00;;;;;;;41.15;14.25;98910.79;1789669;79;21567;-74
2022/05/26 09:48:24;;;;;;;0.88;0.88;;;;;;;41.39;13.69;98923.36;1779212;80;21408;-72
2022/05/26 09:51:06;;;;;;;3.22;1.12;;;;;;;41.40;13.37;98919.39;1781640;80;20915;-72
2022/05/26 09:53:39;;;;;;;1.15;1.02;;;;;;;41.34;13.71;98921.73;1789736;80;21024;-75
2022/05/26 09:56:06;;;;;;;1.42;0.88;;;;;;;41.23;13.55;98915.24;1789639;80;21137;-73
2022/05/26 09:58:40;;;;;;;1.57;1.00;;;;;;;40.81;13.54;98911.47;1789417;80;21041;-72
2022/05/26 10:01:23;;;;;;;4.20;0.90;;;;;;;40.45;13.72;98899.72;1789852;79;21001;-75
2022/05/26 10:04:17;;;;;;;1.92;0.90;;;;;;;39.53;14.23;98904.06;1780028;80;20939;-73
2022/05/26 10:07:05;;;;;;;0.98;0.90;;;;;;;38.47;14.91;98914.73;1785349;80;20883;-74
2022/05/26 10:09:55;;;;;;;5.87;1.20;;;;;;;37.67;15.42;98918.18;1782897;79;21693;-74
2022/05/26 10:12:33;;;;;;;0.93;0.68;;;;;;;35.78;16.67;98913.23;1753629;79;21453;-72
2022/05/26 10:15:31;;;;;;;0.78;0.78;;;;;;;34.89;17.47;98907.34;1789798;79;21449;-73
2022/05/26 10:18:13;;;;;;;1.12;0.90;;;;;;;34.00;18.44;98908.84;1789626;80;20958;-73
2022/05/26 10:21:03;;;;;;;1.50;1.15;;;;;;;32.73;19.20;98915.53;1790148;80;20875;-72
2022/05/26 10:24:06;;;;;;;1.10;1.00;;;;;;;31.51;20.57;98920.56;1789780;80;21963;-73
2022/05/26 10:27:01;;;;;;;1.35;1.00;;;;;;;30.78;21.70;98917.65;1744901;82;21057;-73
2022/05/26 10:29:58;;;;;;;3.25;0.75;;;;;;;29.93;22.33;98918.68;1759315;80;20946;-73
2022/05/26 10:32:54;;;;;;;1.80;1.10;;;;;;;29.06;23.42;98927.06;1759826;80;20961;-74
2022/05/26 10:35:44;;;;;;;1.87;0.82;;;;;;;28.55;24.48;98925.78;1784063;80;25108;-73
2022/05/26 10:38:45;;;;;;;5.95;1.00;;;;;;;28.09;24.95;98920.82;1789031;79;21800;-73
2022/05/26 10:41:35;;;;;;;3.67;1.00;;;;;;;27.83;25.54;98925.02;1789263;80;20979;-73
2022/05/26 10:44:21;;;;;;;1.52;1.17;;;;;;;27.71;26.09;98922.73;1789663;79;20879;-73
2022/05/26 10:47:03;;;;;;;3.17;0.95;;;;;;;27.73;25.98;98923.25;1789680;80;20919;-73
2022/05/26 10:49:35;;;;;;;3.77;1.00;;;;;;;27.72;25.85;98914.78;1789813;79;21390;-74
2022/05/26 10:52:19;;;;;;;2.80;1.00;;;;;;;27.77;25.96;98917.44;1789830;79;21398;-72
2022/05/26 10:54:54;;;;;;;5.60;0.80;;;;;;;27.76;25.91;98924.03;1789937;80;21006;-72
2022/05/26 10:57:29;;;;;;;1.60;0.60;;;;;;;27.87;25.69;98920.02;1760078;80;20934;-74
2022/05/26 11:00:07;;;;;;;2.10;0.90;;;;;;;27.91;24.89;98926.53;1759944;80;21212;-76
2022/05/26 11:03:13;;;;;;;2.75;1.20;;;;;;;27.87;25.02;98930.95;1757249;80;20938;-72
2022/05/26 11:05:46;;;;;;;3.58;0.80;;;;;;;27.97;25.52;98921.27;1780614;80;21140;-74
2022/05/26 11:08:41;;;;;;;4.12;1.20;;;;;;;27.81;24.94;98926.69;1787172;79;20927;-73
2022/05/26 11:11:41;;;;;;;3.22;0.70;;;;;;;27.61;25.33;98929.69;1787278;79;21524;-73
2022/05/26 11:17:40;;;;;;;;;;;;;;;27.30;25.58;98932.52;1786357;80;21022;-73
2022/05/26 11:20:28;;;;;;;5.33;1.32;;;;;;;26.93;25.99;98925.06;1787120;79;21132;-72
2022/05/26 11:23:02;;;;;;;0.98;0.60;;;;;;;26.81;25.91;98924.08;1787077;79;20880;-72
2022/05/26 11:25:31;;;;;;;3.52;0.93;;;;;;;26.64;26.36;98934.61;1768684;80;20891;-73
2022/05/26 11:28:09;;;;;;;3.45;0.70;;;;;;;26.56;26.60;98927.59;1787119;79;21106;-73
2022/05/26 11:36:59;;;;;;;3.72;0.80;;;;;;;26.28;27.30;98921.03;1757336;80;20997;-72
2022/05/26 11:39:29;;;;;;;1.87;0.80;;;;;;;26.28;27.79;98924.55;1756713;80;21013;-73
2022/05/26 11:42:00;;;;;;;1.67;0.70;;;;;;;26.40;27.73;98928.82;1757341;80;21070;-73
2022/05/26 11:44:40;;;;;;;2.47;0.82;;;;;;;26.40;27.58;98926.09;1757461;80;20947;-73
2022/05/26 11:47:32;;;;;;;0.90;0.90;;;;;;;26.38;28.20;98919.00;1757430;80;21234;-73
2022/05/26 11:50:03;;;;;;;2.87;1.17;;;;;;;26.45;27.85;98920.59;1779740;80;21509;-72
2022/05/26 11:52:38;;;;;;;2.80;0.78;;;;;;;26.41;27.43;98915.45;1787136;80;20895;-71
2022/05/26 11:55:18;;;;;;;3.70;1.00;;;;;;;26.27;27.57;98916.66;1777040;80;21838;-73
2022/05/26 11:57:53;;;;;;;2.80;0.85;;;;;;;26.20;27.93;98920.27;1780032;79;21508;-73
2022/05/26 12:00:38;;;;;;;3.33;0.95;;;;;;;26.15;27.41;98929.28;1787303;79;21139;-74
2022/05/26 12:03:27;;;;;;;2.67;0.90;;;;;;;26.03;27.60;98920.63;1787082;79;21158;-72
2022/05/26 12:06:08;;;;;;;2.75;1.25;;;;;;;26.08;27.83;98928.77;1787315;80;20927;-72
2022/05/26 12:08:39;;;;;;;2.08;0.82;;;;;;;26.13;27.89;98919.22;1787173;79;20880;-73
2022/05/26 12:11:12;;;;;;;2.33;0.78;;;;;;;26.00;28.15;98917.65;1767064;80;21029;-71
2022/05/26 12:13:40;;;;;;;4.30;0.93;;;;;;;26.01;28.38;98926.10;1777811;80;21266;-74
2022/05/26 12:16:18;;;;;;;3.85;0.93;;;;;;;26.01;28.75;98925.56;1787215;79;20992;-73
2022/05/26 12:18:58;;;;;;;2.55;0.90;;;;;;;25.97;28.98;98925.05;1787070;80;21017;-73
2022/05/26 12:21:36;;;;;;;1.55;0.78;;;;;;;25.87;28.56;98934.63;1787159;80;20934;-72
2022/05/26 12:24:37;;;;;;;1.05;0.80;;;;;;;25.68;28.55;98928.48;1787114;80;20902;-72
2022/05/26 12:27:04;;;;;;;1.30;0.78;;;;;;;25.54;28.57;98917.95;1781523;80;21798;-72
2022/05/26 12:30:01;;;;;;;2.37;0.80;;;;;;;25.39;28.32;98917.19;1787065;79;20923;-75
2022/05/26 12:32:34;;;;;;;0.93;0.80;;;;;;;25.39;28.31;98922.63;1757325;80;20978;-75
2022/05/26 12:35:24;;;;;;;1.85;0.90;;;;;;;25.39;28.40;98911.20;1777911;80;21426;-74
2022/05/26 12:38:02;;;;;;;0.90;0.80;;;;;;;25.35;28.39;98923.73;1786890;79;21399;-74
2022/05/26 12:40:46;;;;;;;2.17;0.90;;;;;;;25.27;28.60;98909.33;1787118;79;22714;-73
2022/05/26 12:43:35;;;;;;;2.50;0.88;;;;;;;25.13;29.09;98924.08;1757277;80;21385;-73